ZLXYZUUU

Guest
Details From ZLXY - Xianyang
To ZUUU - SHUANGLIU
Flight Number -
Tags generated
Created
Modified
Stats Distance 348 nm / 644 km
Max Altitude 34,000 ft / 10,363 m
Waypoints 5
Social Downloads 0
Likes 0
Share VATSIM

Download

Looking for another format? Having issues loading an existing format? Contact us
Advertisement - Login to hide

Notes

Basic altitude profile: - Ascent Rate: 2500ft/min - Ascent Speed: 250kts - Cruise Altitude: 31000ft - Cruise Speed: 360kts - Descent Rate: 200ft/min - Descent Speed: 220kts Options: - Use NATs: yes - Use PACOTS: yes - Use low airways: yes - Use high airways: yes

Route

ZLXY NSH G212 JTG ZUUU

ID Type Via Altitude Latitude Longitude Leg Dist Tot Dist Heading (true) Name
O ZLXY APT - 0 ft / 0 m 34.44698˚ 108.75220˚ - 0 nm - Xianyang
NSH VOR - 24,400 ft / 7,437 m 33.31833˚ 108.31167˚ 71 nm 71 nm 198° / 198° NINGSHAN VOR-DME
SUBUL FIX G212 (AWY-HI) 34,000 ft / 10,363 m 32.32833˚ 106.71000˚ 100 nm 171 nm 234° / 233° -
JTG VOR G212 (AWY-LO) 8,900 ft / 2,713 m 30.87167˚ 104.39333˚ 147 nm 318 nm 234° / 233° JINTANG VOR-DME
O ZUUU APT - 0 ft / 0 m 30.57853˚ 103.94709˚ 28 nm 347 nm 233° / 233° SHUANGLIU

Altitude Profile

Advertisement - Login to hide

Weather


0- 5 10 15 20 25 30 35+ Temperature / ° C

Clouds and Precipitation
Forecast for 2017-12-11 06:00 UTC. Updated 33 minutes ago

Ground ~20,000 ft ~40,000 ft Winds

ZLXY

Details ICAO ZLXY (XIY)
Name Xianyang
Region China
Timezone Asia/Chongqing (UTC+8.0)
Stats Elevation 1,571 ft / 479 m (AMSL)
Location 34.446980° 108.752203°
Runways 1
Magnetic Variation 3.585° W

METAR

ZLXY 110500Z 08002MPS 360V100 CAVOK 07/M11 Q1024 NOSIG

Decode

TAF

Not found

Departure Runways

ID Width Length Bearing (true) Bearing (mag) Surface Threshold Offset Overrun Length
05 148 ft / 45 m 9,855 ft / 3,004 m 48.69° 52.27° Concrete 0 ft / 0 m 0 ft / 0 m
23 148 ft / 45 m 9,855 ft / 3,004 m 228.71° 232.29° Concrete 0 ft / 0 m 0 ft / 0 m

ZUUU

Details ICAO ZUUU (CTU)
Name SHUANGLIU
Region China
Timezone Asia/Chongqing (UTC+8.0)
Stats Elevation 1,625 ft / 495 m (AMSL)
Location 30.578528° 103.947086°
Runways 1
Magnetic Variation 1.981° W

METAR

ZUUU 110500Z VRB01MPS 4500 HZ NSC 11/03 Q1020 NOSIG

Decode

TAF

Not found

Destination Runways

ID Width Length Bearing (true) Bearing (mag) Surface Threshold Offset Overrun Length
02 197 ft / 60 m 11,834 ft / 3,607 m 21.84° 23.82° Concrete 0 ft / 0 m 196 ft / 60 m
20 197 ft / 60 m 11,834 ft / 3,607 m 201.85° 203.83° Concrete 0 ft / 0 m 196 ft / 60 m

Approach Navaids

Runway Type Ident Frequency Range Bearing (true) Bearing (mag) Slope Elevation
02 Localiser IZW 111.10 MHz 18 nm / 33 km 21.87° 23.85° - 1,624 ft / 495 m (AMSL)
02 Glidescope IZW 111.10 MHz 10 nm / 19 km 21.84° 23.83° 3.00° 1,624 ft / 495 m (AMSL)
20 Localiser IAA 109.10 MHz 18 nm / 33 km 201.87° 203.85° - 1,624 ft / 495 m (AMSL)
20 Glidescope IAA 109.10 MHz 10 nm / 19 km 201.84° 203.83° 3.00° 1,624 ft / 495 m (AMSL)

Popular Alternatives